createdAt,value
2018-10-11T00:00:59.345Z,80.22
2018-10-11T00:01:59.344Z,80.42
2018-10-11T00:02:59.340Z,80.04
2018-10-11T00:03:59.340Z,79.94
2018-10-11T00:04:59.327Z,79.94
2018-10-11T00:05:59.325Z,79.84
2018-10-11T00:06:59.328Z,80.04
2018-10-11T00:07:59.326Z,79.75
2018-10-11T00:08:59.316Z,79.75
2018-10-11T00:09:59.311Z,79.84
2018-10-11T00:10:59.308Z,79.65
2018-10-11T00:11:59.304Z,79.94
2018-10-11T00:12:59.308Z,79.46
2018-10-11T00:13:59.303Z,79.36
2018-10-11T00:14:59.300Z,79.84
2018-10-11T00:15:59.295Z,79.17
2018-10-11T00:16:59.288Z,79.27
2018-10-11T00:17:59.286Z,79.36
2018-10-11T00:18:59.281Z,79.46
2018-10-11T00:19:59.285Z,79.46
2018-10-11T00:20:59.278Z,79.46
2018-10-11T00:21:59.275Z,79.55
2018-10-11T00:22:59.270Z,79.36
2018-10-11T00:23:59.264Z,79.46
2018-10-11T00:24:59.265Z,79.65
2018-10-11T00:25:59.263Z,79.36
2018-10-11T00:26:59.260Z,79.36
2018-10-11T00:27:59.256Z,79.94
2018-10-11T00:28:59.247Z,79.27
2018-10-11T00:29:59.245Z,79.94
2018-10-11T00:30:59.247Z,79.94
2018-10-11T00:31:59.238Z,79.75
2018-10-11T00:32:59.240Z,79.65
2018-10-11T00:33:59.239Z,79.46
2018-10-11T00:34:59.231Z,79.07
2018-10-11T00:35:59.228Z,79.46
2018-10-11T00:36:59.221Z,79.36
2018-10-11T00:37:59.217Z,79.27
2018-10-11T00:38:59.218Z,79.36
2018-10-11T00:39:59.217Z,79.46
2018-10-11T00:40:59.208Z,79.36
2018-10-11T00:41:59.204Z,79.46
2018-10-11T00:42:59.201Z,79.75
2018-10-11T00:43:59.197Z,80.13
2018-10-11T00:44:59.199Z,79.55
2018-10-11T00:45:59.198Z,79.55
2018-10-11T00:46:59.193Z,79.55
2018-10-11T00:47:59.188Z,79.75
2018-10-11T00:48:59.180Z,79.27
2018-10-11T00:49:59.177Z,79.27
2018-10-11T00:50:59.174Z,79.65
2018-10-11T00:51:59.172Z,79.36
2018-10-11T00:52:59.174Z,79.46
2018-10-11T00:53:59.168Z,79.27
2018-10-11T00:54:59.159Z,79.50
2018-10-11T00:55:59.156Z,79.21
2018-10-11T00:56:59.158Z,79.17
2018-10-11T00:57:59.155Z,79.17
2018-10-11T00:58:59.151Z,78.98
2018-10-11T00:59:59.146Z,79.07
2018-10-11T01:00:59.139Z,79.55
2018-10-11T01:01:59.137Z,79.17
2018-10-11T01:02:59.132Z,79.36
2018-10-11T01:03:59.134Z,79.17
2018-10-11T01:04:59.129Z,79.17
2018-10-11T01:05:59.126Z,79.36
2018-10-11T01:06:59.123Z,79.75
2018-10-11T01:07:59.128Z,79.84
2018-10-11T01:08:59.112Z,79.65
2018-10-11T01:09:59.204Z,79.75
2018-10-11T01:10:59.110Z,80.04
2018-10-11T01:11:59.106Z,80.04
2018-10-11T01:12:59.098Z,79.84
2018-10-11T01:13:59.094Z,80.22
2018-10-11T01:14:59.091Z,79.84
2018-10-11T01:15:59.087Z,80.51
2018-10-11T01:16:59.096Z,80.51
2018-10-11T01:17:59.084Z,80.51
2018-10-11T01:18:59.081Z,80.51
2018-10-11T01:19:59.077Z,80.13
2018-10-11T01:20:59.070Z,79.99
2018-10-11T01:21:59.067Z,80.22
2018-10-11T01:22:59.064Z,80.22
2018-10-11T01:23:59.060Z,80.38
2018-10-11T01:24:59.061Z,80.96
2018-10-11T01:25:59.059Z,81.34
2018-10-11T01:26:59.052Z,80.96
2018-10-11T01:27:59.047Z,81.34
2018-10-11T01:28:59.048Z,80.96
2018-10-11T01:29:59.084Z,80.76
2018-10-11T01:30:59.045Z,80.47
2018-10-11T01:31:59.037Z,80.96
2018-10-11T01:32:59.028Z,80.57
2018-10-11T01:33:59.030Z,81.05
2018-10-11T01:34:59.022Z,81.53
2018-10-11T01:35:59.018Z,81.82
2018-10-11T01:36:59.019Z,81.24
2018-10-11T01:37:59.015Z,81.53
2018-10-11T01:38:59.014Z,81.43
2018-10-11T01:39:59.009Z,81.68
2018-10-11T01:40:59.002Z,82.45
2018-10-11T01:41:58.999Z,82.45
2018-10-11T01:42:59.000Z,82.35
2018-10-11T01:43:58.994Z,82.10
2018-10-11T01:44:58.988Z,82.07
2018-10-11T01:45:58.983Z,82.26
2018-10-11T01:46:58.981Z,82.26
2018-10-11T01:47:58.977Z,82.40
2018-10-11T01:48:58.976Z,82.59
2018-10-11T01:49:58.972Z,82.40
2018-10-11T01:50:58.970Z,82.59
2018-10-11T01:51:58.965Z,82.49
2018-10-11T01:52:58.957Z,82.20
2018-10-11T01:53:58.954Z,82.68
2018-10-11T01:54:58.952Z,82.07
2018-10-11T01:55:58.952Z,82.16
2018-10-11T01:56:58.949Z,81.97
2018-10-11T01:57:58.944Z,82.35
2018-10-11T01:58:58.935Z,81.97
2018-10-11T01:59:58.931Z,82.35
2018-10-11T02:00:58.933Z,82.54
2018-10-11T02:01:58.930Z,82.26
2018-10-11T02:02:58.925Z,82.74
2018-10-11T02:03:58.921Z,83.12
2018-10-11T02:04:58.913Z,82.84
2018-10-11T02:05:58.910Z,82.93
2018-10-11T02:06:58.906Z,82.54
2018-10-11T02:07:58.901Z,82.64
2018-10-11T02:08:58.903Z,82.84
2018-10-11T02:09:58.899Z,82.84
2018-10-11T02:10:58.896Z,82.84
2018-10-11T02:11:58.892Z,82.87
2018-10-11T02:12:58.885Z,82.26
2018-10-11T02:13:58.883Z,82.07
2018-10-11T02:14:58.883Z,83.03
2018-10-11T02:15:58.875Z,82.93
2018-10-11T02:16:58.868Z,82.93
2018-10-11T02:17:58.864Z,83.03
2018-10-11T02:18:58.860Z,82.84
2018-10-11T02:19:58.859Z,83.12
2018-10-11T02:20:58.857Z,82.93
2018-10-11T02:21:58.853Z,82.07
2018-10-11T02:22:58.852Z,82.35
2018-10-11T02:23:58.845Z,82.45
2018-10-11T02:24:58.836Z,82.54
2018-10-11T02:25:58.833Z,83.12
2018-10-11T02:26:58.831Z,82.93
2018-10-11T02:27:58.825Z,82.93
2018-10-11T02:28:58.828Z,82.84
2018-10-11T02:29:58.824Z,83.12
2018-10-11T02:30:58.814Z,82.16
2018-10-11T02:31:58.846Z,82.64
2018-10-11T02:32:58.813Z,83.41
2018-10-11T02:33:58.809Z,83.31
2018-10-11T02:34:58.804Z,83.22
2018-10-11T02:35:58.801Z,82.93
2018-10-11T02:36:58.793Z,83.12
2018-10-11T02:37:58.789Z,83.51
2018-10-11T02:38:58.786Z,83.12
2018-10-11T02:39:58.782Z,83.41
2018-10-11T02:40:58.785Z,83.51
2018-10-11T02:41:58.778Z,83.41
2018-10-11T02:42:58.778Z,83.31
2018-10-11T02:43:58.774Z,83.51
2018-10-11T02:44:58.761Z,83.18
2018-10-11T02:45:58.758Z,83.31
2018-10-11T02:46:58.763Z,83.31
2018-10-11T02:47:58.754Z,83.51
2018-10-11T02:48:58.745Z,83.31
2018-10-11T02:49:58.745Z,83.89
2018-10-11T02:50:58.739Z,83.08
2018-10-11T02:51:58.733Z,83.27
2018-10-11T02:52:58.733Z,83.85
2018-10-11T02:53:58.730Z,83.80
2018-10-11T02:54:58.728Z,83.60
2018-10-11T02:55:58.724Z,83.47
2018-10-11T02:56:58.718Z,83.47
2018-10-11T02:57:58.710Z,83.65
2018-10-11T02:58:58.707Z,83.65
2018-10-11T02:59:58.703Z,83.65
2018-10-11T03:00:58.704Z,83.75
2018-10-11T03:01:58.707Z,84.04
2018-10-11T03:02:58.696Z,84.33
2018-10-11T03:03:58.687Z,84.14
2018-10-11T03:04:58.687Z,83.65
2018-10-11T03:05:58.684Z,83.85
2018-10-11T03:06:58.681Z,84.04
2018-10-11T03:07:58.676Z,83.94
2018-10-11T03:08:58.672Z,84.61
2018-10-11T03:09:58.666Z,84.61
2018-10-11T03:10:58.660Z,84.91
2018-10-11T03:11:58.655Z,84.71
2018-10-11T03:12:58.658Z,85.00
2018-10-11T03:13:58.653Z,85.44
2018-10-11T03:14:58.648Z,85.44
2018-10-11T03:15:58.644Z,85.44
2018-10-11T03:16:58.636Z,85.63
2018-10-11T03:17:58.633Z,85.05
2018-10-11T03:18:58.632Z,85.82
2018-10-11T03:19:58.628Z,85.44
2018-10-11T03:20:58.619Z,85.28
2018-10-11T03:21:58.615Z,84.42
2018-10-11T03:22:58.612Z,84.52
2018-10-11T03:23:58.608Z,84.52
2018-10-11T03:24:58.609Z,84.91
2018-10-11T03:25:58.604Z,84.91
2018-10-11T03:26:58.601Z,84.91
2018-10-11T03:27:58.595Z,84.61
2018-10-11T03:28:58.589Z,84.52
2018-10-11T03:29:58.588Z,84.71
2018-10-11T03:30:58.581Z,84.42
2018-10-11T03:31:58.575Z,84.71
2018-10-11T03:32:58.576Z,84.52
2018-10-11T03:33:58.571Z,84.81
2018-10-11T03:34:58.563Z,84.42
2018-10-11T03:35:58.559Z,83.75
2018-10-11T03:36:58.560Z,83.65
2018-10-11T03:37:58.555Z,83.65
2018-10-11T03:38:58.551Z,83.65
2018-10-11T03:39:58.547Z,84.04
2018-10-11T03:40:58.539Z,83.85
2018-10-11T03:41:58.539Z,84.04
2018-10-11T03:42:58.532Z,83.85
2018-10-11T03:43:58.527Z,84.14
2018-10-11T03:44:58.528Z,84.14
2018-10-11T03:45:58.523Z,83.70
2018-10-11T03:46:58.519Z,83.37
2018-10-11T03:47:58.515Z,83.37
2018-10-11T03:48:58.506Z,83.37
2018-10-11T03:49:58.502Z,84.14
2018-10-11T03:50:58.503Z,83.94
2018-10-11T03:51:58.499Z,83.56
2018-10-11T03:52:58.490Z,84.14
2018-10-11T03:53:58.487Z,83.94
2018-10-11T03:54:58.483Z,84.04
2018-10-11T03:55:58.479Z,83.75
2018-10-11T03:56:58.479Z,84.52
2018-10-11T03:57:58.476Z,84.61
2018-10-11T03:58:58.470Z,84.61
2018-10-11T03:59:58.468Z,84.48
2018-10-11T04:00:58.459Z,85.15
2018-10-11T04:01:58.454Z,85.15
2018-10-11T04:02:58.450Z,85.34
2018-10-11T04:03:58.446Z,85.72
2018-10-11T04:04:58.446Z,85.82
2018-10-11T04:05:58.444Z,85.92
2018-10-11T04:06:58.434Z,86.01
2018-10-11T04:07:58.430Z,86.30
2018-10-11T04:08:58.431Z,86.30
2018-10-11T04:09:58.430Z,86.54
2018-10-11T04:10:58.421Z,86.78
2018-10-11T04:11:58.419Z,87.12
2018-10-11T04:12:58.408Z,87.12
2018-10-11T04:13:58.405Z,87.50
2018-10-11T04:14:58.401Z,87.21
2018-10-11T04:15:58.395Z,87.70
2018-10-11T04:16:58.396Z,88.08
2018-10-11T04:17:58.391Z,87.98
2018-10-11T04:18:58.389Z,87.60
2018-10-11T04:19:58.384Z,87.98
2018-10-11T04:20:58.376Z,87.98
2018-10-11T04:21:58.371Z,88.37
2018-10-11T04:22:58.371Z,88.17
2018-10-11T04:23:58.368Z,88.32
2018-10-11T04:24:58.358Z,88.84
2018-10-11T04:25:58.381Z,87.88
2018-10-11T04:26:58.351Z,87.98
2018-10-11T04:27:58.344Z,88.17
2018-10-11T04:28:58.345Z,88.27
2018-10-11T04:30:58.336Z,88.08
2018-10-11T04:31:58.333Z,88.08
2018-10-11T04:32:58.324Z,87.79
2018-10-11T04:33:58.323Z,87.88
2018-10-11T04:34:58.316Z,88.08
2018-10-11T04:35:58.340Z,88.27
2018-10-11T04:36:58.310Z,88.08
2018-10-11T04:37:58.306Z,88.37
2018-10-11T04:38:58.298Z,87.50
2018-10-11T04:39:58.292Z,87.50
2018-10-11T04:40:58.293Z,87.50
2018-10-11T04:41:58.307Z,87.79
2018-10-11T04:42:58.392Z,87.79
2018-10-11T04:43:58.278Z,87.50
2018-10-11T04:44:58.270Z,87.70
2018-10-11T04:45:58.266Z,87.50
2018-10-11T04:46:58.261Z,87.70
2018-10-11T04:47:58.256Z,87.50
2018-10-11T04:48:58.257Z,87.41
2018-10-11T04:49:58.253Z,87.60
2018-10-11T04:50:58.252Z,87.41
2018-10-11T04:51:58.244Z,87.31
2018-10-11T04:52:58.234Z,87.31
2018-10-11T04:53:58.231Z,87.41
2018-10-11T04:54:58.232Z,87.31
2018-10-11T04:55:58.228Z,87.60
2018-10-11T04:56:58.219Z,87.55
2018-10-11T04:57:58.213Z,87.50
2018-10-11T04:58:58.210Z,87.50
2018-10-11T04:59:58.205Z,87.70
2018-10-11T05:00:58.204Z,87.60
2018-10-11T05:01:58.200Z,87.31
2018-10-11T05:02:58.198Z,87.50
2018-10-11T05:03:58.191Z,87.41
2018-10-11T05:04:58.182Z,87.21
2018-10-11T05:05:58.178Z,87.31
2018-10-11T05:06:58.174Z,87.31
2018-10-11T05:07:58.168Z,87.50
2018-10-11T05:08:58.169Z,87.79
2018-10-11T05:09:58.164Z,88.37
2018-10-11T05:10:58.157Z,88.46
2018-10-11T05:11:58.151Z,88.17
2018-10-11T05:12:58.150Z,88.27
2018-10-11T05:13:58.147Z,87.98
2018-10-11T05:14:58.142Z,88.08
2018-10-11T05:15:58.144Z,87.98
2018-10-11T05:16:58.130Z,87.98
2018-10-11T05:17:58.125Z,88.08
2018-10-11T05:18:58.120Z,88.27
2018-10-11T05:19:58.115Z,87.88
2018-10-11T05:20:58.117Z,87.70
2018-10-11T05:21:58.111Z,88.37
2018-10-11T05:22:58.106Z,88.17
2018-10-11T05:23:58.102Z,87.98
2018-10-11T05:24:58.092Z,87.98
2018-10-11T05:25:58.105Z,87.98
2018-10-11T05:26:58.090Z,88.08
2018-10-11T05:27:58.153Z,87.98
2018-10-11T05:28:58.076Z,87.70
2018-10-11T05:29:58.072Z,87.79
2018-10-11T05:30:58.066Z,88.37
2018-10-11T05:31:58.061Z,87.98
2018-10-11T05:32:58.064Z,88.08
2018-10-11T05:33:58.059Z,87.88
2018-10-11T05:34:58.054Z,87.98
2018-10-11T05:35:58.049Z,87.98
2018-10-11T05:36:58.044Z,87.70
2018-10-11T05:37:58.084Z,88.17
2018-10-11T05:38:58.031Z,88.17
2018-10-11T05:39:58.028Z,88.37
2018-10-11T05:40:58.028Z,88.08
2018-10-11T05:41:58.028Z,87.88
2018-10-11T05:42:58.018Z,87.88
2018-10-11T05:43:58.010Z,87.88
2018-10-11T05:44:58.008Z,87.70
2018-10-11T05:45:58.004Z,87.88
2018-10-11T05:46:58.002Z,87.70
2018-10-11T05:47:57.995Z,88.22
2018-10-11T05:48:57.987Z,88.17
2018-10-11T05:49:57.982Z,88.17
2018-10-11T05:50:57.978Z,87.50
2018-10-11T05:51:57.972Z,87.26
2018-10-11T05:52:57.976Z,87.31
2018-10-11T05:53:57.970Z,87.41
2018-10-11T05:54:57.964Z,87.26
2018-10-11T05:55:57.959Z,87.35
2018-10-11T05:56:57.950Z,87.21
2018-10-11T05:57:57.946Z,87.41
2018-10-11T05:58:57.946Z,87.50
2018-10-11T05:59:57.942Z,87.45
2018-10-11T06:00:57.934Z,87.35
2018-10-11T06:01:57.928Z,87.35
2018-10-11T06:02:57.924Z,87.45
2018-10-11T06:03:57.942Z,87.64
2018-10-11T06:04:57.920Z,87.45
2018-10-11T06:05:57.916Z,87.55
2018-10-11T06:06:57.906Z,87.45
2018-10-11T06:07:57.902Z,87.74
2018-10-11T06:08:57.902Z,87.26
2018-10-11T06:09:57.897Z,87.35
2018-10-11T06:10:57.893Z,87.45
2018-10-11T06:11:57.945Z,87.16
2018-10-11T06:12:57.879Z,87.16
2018-10-11T06:13:57.874Z,87.16
2018-10-11T06:14:57.875Z,87.07
2018-10-11T06:15:57.869Z,87.16
2018-10-11T06:16:57.862Z,86.82
2018-10-11T06:17:57.946Z,86.44
2018-10-11T06:18:57.854Z,86.00
2018-10-11T06:19:57.848Z,84.60
2018-10-11T06:20:57.850Z,83.54
2018-10-11T06:21:57.846Z,83.40
2018-10-11T06:22:57.842Z,82.43
2018-10-11T06:23:57.847Z,81.57
2018-10-11T06:24:58.049Z,80.84
2018-10-11T06:25:57.828Z,80.21
2018-10-11T06:26:57.821Z,79.28
2018-10-11T06:27:57.818Z,78.85
2018-10-11T06:28:57.819Z,76.86
2018-10-11T06:29:57.821Z,75.99
2018-10-11T06:30:57.808Z,74.55
2018-10-11T06:31:57.806Z,73.97
2018-10-11T06:32:57.806Z,74.07
2018-10-11T06:33:57.805Z,73.33
2018-10-11T06:34:57.804Z,72.50
2018-10-11T06:35:57.890Z,71.89
2018-10-11T06:36:57.794Z,71.64
2018-10-11T06:37:57.794Z,71.41
2018-10-11T06:38:57.791Z,71.89
2018-10-11T06:39:57.790Z,71.25
2018-10-11T06:40:57.792Z,70.86
2018-10-11T06:41:57.906Z,70.70
2018-10-11T06:42:57.790Z,70.00
2018-10-11T06:43:57.789Z,69.74
2018-10-11T06:44:57.785Z,69.64
2018-10-11T06:45:57.785Z,68.87
2018-10-11T06:46:57.789Z,68.84
2018-10-11T06:47:57.788Z,69.61
2018-10-11T06:48:57.783Z,70.38
2018-10-11T06:49:57.919Z,70.28
2018-10-11T06:50:57.791Z,70.83
2018-10-11T06:51:57.783Z,71.41
2018-10-11T06:52:57.788Z,71.50
2018-10-11T06:53:57.790Z,71.15
2018-10-11T06:54:57.791Z,70.90
2018-10-11T06:55:57.810Z,69.68
2018-10-11T06:56:57.787Z,69.58
2018-10-11T06:57:57.788Z,68.81
2018-10-11T06:58:57.789Z,68.81
2018-10-11T06:59:57.788Z,68.49
2018-10-11T07:00:57.796Z,68.33
2018-10-11T07:01:57.832Z,68.46
2018-10-11T07:02:57.793Z,67.82
2018-10-11T07:03:57.794Z,67.49
2018-10-11T07:04:57.799Z,66.66
2018-10-11T07:05:57.801Z,65.69
2018-10-11T07:06:57.803Z,65.37
2018-10-11T07:07:57.804Z,65.88
2018-10-11T07:08:57.801Z,65.98
2018-10-11T07:09:57.808Z,66.01
2018-10-11T07:10:57.805Z,67.14
2018-10-11T07:11:57.807Z,67.91
2018-10-11T07:12:57.813Z,68.39
2018-10-11T07:13:57.876Z,67.75
2018-10-11T07:14:57.819Z,67.85
2018-10-11T07:15:57.819Z,67.46
2018-10-11T07:16:57.816Z,67.30
2018-10-11T07:17:57.818Z,67.20
2018-10-11T07:18:57.832Z,67.46
2018-10-11T07:19:57.830Z,67.49
2018-10-11T07:20:57.825Z,67.62
2018-10-11T07:21:57.828Z,65.78
2018-10-11T07:22:57.830Z,66.17
2018-10-11T07:23:57.832Z,66.01
2018-10-11T07:24:57.839Z,66.56
2018-10-11T07:25:57.918Z,67.46
2018-10-11T07:26:57.847Z,67.01
2018-10-11T07:27:57.846Z,67.14
2018-10-11T07:28:57.845Z,65.88
2018-10-11T07:29:57.848Z,65.20
2018-10-11T07:30:57.854Z,64.63
2018-10-11T07:31:57.854Z,64.50
2018-10-11T07:32:57.861Z,65.40
2018-10-11T07:33:57.864Z,65.11
2018-10-11T07:34:57.925Z,65.37
2018-10-11T07:35:57.866Z,65.20
2018-10-11T07:36:57.874Z,65.40
2018-10-11T07:37:57.877Z,66.01
2018-10-11T07:38:57.883Z,65.14
2018-10-11T07:39:57.882Z,64.66
2018-10-11T07:40:57.920Z,65.27
2018-10-11T07:41:57.885Z,65.59
2018-10-11T07:42:57.890Z,65.27
2018-10-11T07:43:57.893Z,66.24
2018-10-11T07:44:57.903Z,66.17
2018-10-11T07:45:57.903Z,66.05
2018-10-11T07:46:57.915Z,64.69
2018-10-11T07:47:57.911Z,63.66
2018-10-11T07:48:57.911Z,63.98
2018-10-11T07:49:57.914Z,63.82
2018-10-11T07:50:57.924Z,63.49
2018-10-11T07:51:57.926Z,61.52
2018-10-11T07:52:57.982Z,60.27
2018-10-11T07:53:57.929Z,59.88
2018-10-11T07:54:57.934Z,58.88
2018-10-11T07:55:57.937Z,58.81
2018-10-11T07:56:57.948Z,58.88
2018-10-11T07:57:57.951Z,58.81
2018-10-11T07:58:57.958Z,58.14
2018-10-11T07:59:57.959Z,58.52
2018-10-11T08:00:57.959Z,58.01
2018-10-11T08:01:57.964Z,58.39
2018-10-11T08:02:57.970Z,58.84
2018-10-11T08:03:57.975Z,57.78
2018-10-11T08:04:57.985Z,56.90
2018-10-11T08:05:57.989Z,57.17
2018-10-11T08:06:58.043Z,57.97
2018-10-11T08:07:58.027Z,58.11
2018-10-11T08:08:58.018Z,59.27
2018-10-11T08:09:58.010Z,59.56
2018-10-11T08:10:58.117Z,59.84
2018-10-11T08:11:58.202Z,59.30
2018-10-11T08:12:58.020Z,58.81
2018-10-11T08:13:58.025Z,58.36
2018-10-11T08:14:58.031Z,58.36
2018-10-11T08:15:58.119Z,57.83
2018-10-11T08:16:58.288Z,56.40
2018-10-11T08:17:58.316Z,55.94
2018-10-11T08:18:58.250Z,54.97
2018-10-11T08:19:58.080Z,54.36
2018-10-11T08:20:58.066Z,54.78
2018-10-11T08:21:58.076Z,55.41
2018-10-11T08:22:58.087Z,54.97
2018-10-11T08:23:58.088Z,54.03
2018-10-11T08:24:58.224Z,53.54
2018-10-11T08:25:58.623Z,52.79
2018-10-11T08:26:58.199Z,52.74
2018-10-11T08:27:58.109Z,53.35
2018-10-11T08:28:58.121Z,53.42
2018-10-11T08:29:58.129Z,53.78
2018-10-11T08:30:58.139Z,54.44
2018-10-11T08:31:58.143Z,55.64
2018-10-11T08:32:58.155Z,57.14
2018-10-11T08:33:58.152Z,58.33
2018-10-11T08:34:58.159Z,58.00
2018-10-11T08:35:58.165Z,57.34
2018-10-11T08:36:58.180Z,55.98
2018-10-11T08:37:58.473Z,54.80
2018-10-11T08:38:58.187Z,54.27
2018-10-11T08:39:58.196Z,53.89
2018-10-11T08:40:58.206Z,53.11
2018-10-11T08:41:58.217Z,52.31
2018-10-11T08:42:58.223Z,52.50
2018-10-11T08:43:58.299Z,52.43
2018-10-11T08:44:58.232Z,52.72
2018-10-11T08:45:58.240Z,51.87
2018-10-11T08:46:58.249Z,51.63
2018-10-11T08:47:58.255Z,50.78
2018-10-11T08:48:58.290Z,49.78
2018-10-11T08:49:58.278Z,49.66
2018-10-11T08:50:58.324Z,49.15
2018-10-11T08:51:58.292Z,48.19
2018-10-11T08:52:58.297Z,48.27
2018-10-11T08:53:58.305Z,47.90
2018-10-11T08:54:58.319Z,47.42
2018-10-11T08:55:58.369Z,49.17
2018-10-11T08:56:58.333Z,49.37
2018-10-11T08:57:58.341Z,49.97
2018-10-11T08:58:58.354Z,49.12
2018-10-11T08:59:58.358Z,49.22
2018-10-11T09:00:58.377Z,49.34
2018-10-11T09:01:58.385Z,50.31
2018-10-11T09:02:58.390Z,51.99
2018-10-11T09:03:58.529Z,51.77
2018-10-11T09:04:58.457Z,51.73
2018-10-11T09:05:58.410Z,50.04
2018-10-11T09:06:58.419Z,49.02
2018-10-11T09:07:58.427Z,47.31
2018-10-11T09:08:58.439Z,45.67
2018-10-11T09:09:58.450Z,45.18
2018-10-11T09:10:58.484Z,45.23
2018-10-11T09:11:58.461Z,45.33
2018-10-11T09:12:58.475Z,45.10
2018-10-11T09:13:58.630Z,43.99
2018-10-11T09:14:58.494Z,44.45
2018-10-11T09:15:58.502Z,44.87
2018-10-11T09:16:58.508Z,44.15
2018-10-11T09:17:58.517Z,43.84
2018-10-11T09:18:58.528Z,43.77
2018-10-11T09:19:58.535Z,42.82
2018-10-11T09:20:58.550Z,42.19
2018-10-11T09:21:58.560Z,41.11
2018-10-11T09:22:58.571Z,40.27
2018-10-11T09:23:58.581Z,40.16
2018-10-11T09:24:58.585Z,40.09
2018-10-11T09:25:58.597Z,40.35
2018-10-11T09:26:58.611Z,41.13
2018-10-11T09:27:58.621Z,42.35
2018-10-11T09:28:58.628Z,43.38
2018-10-11T09:29:58.639Z,43.89
2018-10-11T09:30:58.649Z,44.60
2018-10-11T09:31:58.658Z,46.22
2018-10-11T09:32:58.673Z,46.83
2018-10-11T09:33:58.685Z,47.12
2018-10-11T09:34:58.693Z,46.66
2018-10-11T09:35:58.704Z,47.29
2018-10-11T09:36:58.709Z,48.44
2018-10-11T09:37:58.721Z,48.97
2018-10-11T09:38:58.730Z,49.78
2018-10-11T09:39:58.739Z,49.51
2018-10-11T09:40:58.752Z,49.41
2018-10-11T09:41:58.762Z,49.49
2018-10-11T09:42:58.823Z,50.02
2018-10-11T09:43:58.774Z,51.07
2018-10-11T09:44:58.789Z,51.72
2018-10-11T09:45:58.797Z,52.57
2018-10-11T09:46:58.806Z,53.47
2018-10-11T09:47:58.820Z,53.45
2018-10-11T09:48:58.818Z,53.28
2018-10-11T09:49:58.825Z,53.36
2018-10-11T09:50:58.833Z,51.87
2018-10-11T09:51:58.840Z,50.49
2018-10-11T09:52:58.853Z,48.60
2018-10-11T09:53:58.861Z,46.55
2018-10-11T09:54:58.976Z,45.18
2018-10-11T09:55:58.881Z,45.01
2018-10-11T09:56:58.882Z,44.15
2018-10-11T09:57:58.892Z,43.77
2018-10-11T09:58:58.903Z,43.24
2018-10-11T09:59:58.911Z,43.81
2018-10-11T10:00:58.913Z,44.16
2018-10-11T10:01:58.978Z,45.26
2018-10-11T10:02:58.933Z,46.97
2018-10-11T10:03:58.940Z,48.24
2018-10-11T10:04:58.953Z,49.15
2018-10-11T10:05:58.962Z,48.80
2018-10-11T10:06:58.970Z,47.95
2018-10-11T10:07:58.976Z,46.50
2018-10-11T10:08:58.980Z,46.26
2018-10-11T10:09:59.051Z,45.40
2018-10-11T10:10:58.998Z,45.23
2018-10-11T10:11:59.005Z,44.15
2018-10-11T10:12:59.019Z,43.71
2018-10-11T10:13:59.029Z,44.89
2018-10-11T10:14:59.030Z,45.10
2018-10-11T10:15:59.038Z,43.93
2018-10-11T10:16:59.053Z,44.17
2018-10-11T10:17:59.061Z,43.38
2018-10-11T10:18:59.068Z,42.82
2018-10-11T10:19:59.075Z,42.65
2018-10-11T10:20:59.107Z,42.27
2018-10-11T10:21:59.090Z,41.80
2018-10-11T10:22:59.099Z,41.02
2018-10-11T10:23:59.106Z,41.58
2018-10-11T10:24:59.120Z,41.56
2018-10-11T10:25:59.130Z,42.33
2018-10-11T10:26:59.216Z,42.78
2018-10-11T10:27:59.149Z,42.88
2018-10-11T10:28:59.152Z,43.38
2018-10-11T10:29:59.162Z,43.23
2018-10-11T10:30:59.177Z,44.18
2018-10-11T10:31:59.185Z,43.96
2018-10-11T10:32:59.192Z,44.87
2018-10-11T10:33:59.232Z,44.82
2018-10-11T10:34:59.208Z,45.36
2018-10-11T10:35:59.217Z,45.45
2018-10-11T10:36:59.235Z,45.28
2018-10-11T10:37:59.240Z,44.87
2018-10-11T10:38:59.248Z,44.84
2018-10-11T10:39:59.381Z,45.57
2018-10-11T10:40:59.260Z,44.96
2018-10-11T10:41:59.280Z,45.50
2018-10-11T10:42:59.285Z,43.98
2018-10-11T10:43:59.290Z,44.07
2018-10-11T10:44:59.302Z,43.44
2018-10-11T10:45:59.309Z,43.44
2018-10-11T10:46:59.314Z,43.96
2018-10-11T10:47:59.323Z,45.36
2018-10-11T10:48:59.430Z,44.28
2018-10-11T10:49:59.347Z,44.79
2018-10-11T10:50:59.354Z,44.24
2018-10-11T10:51:59.362Z,43.84
2018-10-11T10:52:59.369Z,44.20
2018-10-11T10:53:59.377Z,43.73
2018-10-11T10:54:59.392Z,44.01
2018-10-11T10:55:59.397Z,44.13
2018-10-11T10:56:59.410Z,44.20
2018-10-11T10:57:59.420Z,43.84
2018-10-11T10:58:59.430Z,43.84
2018-10-11T10:59:59.440Z,44.09
2018-10-11T11:00:59.444Z,43.99
2018-10-11T11:01:59.455Z,44.21
2018-10-11T11:02:59.469Z,45.14
2018-10-11T11:03:59.478Z,45.67
2018-10-11T11:04:59.482Z,45.10
2018-10-11T11:05:59.492Z,43.99
2018-10-11T11:06:59.501Z,45.31
2018-10-11T11:07:59.511Z,45.39
2018-10-11T11:08:59.524Z,45.43
2018-10-11T11:09:59.533Z,44.67
2018-10-11T11:10:59.542Z,44.57
2018-10-11T11:11:59.551Z,44.10
2018-10-11T11:12:59.597Z,44.23
2018-10-11T11:13:59.564Z,44.30
2018-10-11T11:14:59.575Z,43.69
2018-10-11T11:15:59.582Z,44.45
2018-10-11T11:16:59.596Z,44.73
2018-10-11T11:17:59.606Z,44.92
2018-10-11T11:18:59.702Z,45.78
2018-10-11T11:19:59.615Z,46.56
2018-10-11T11:20:59.628Z,48.63
2018-10-11T11:21:59.636Z,50.09
2018-10-11T11:22:59.643Z,51.33
2018-10-11T11:23:59.649Z,51.60
2018-10-11T11:24:59.700Z,52.37
2018-10-11T11:25:59.658Z,53.06
2018-10-11T11:26:59.666Z,53.16
2018-10-11T11:27:59.676Z,53.64
2018-10-11T11:28:59.683Z,53.64
2018-10-11T11:29:59.689Z,53.83
2018-10-11T11:30:59.739Z,54.00
2018-10-11T11:31:59.699Z,54.49
2018-10-11T11:32:59.700Z,54.29
2018-10-11T11:33:59.705Z,54.66
2018-10-11T11:34:59.714Z,55.53
2018-10-11T11:35:59.718Z,55.73
2018-10-11T11:36:59.720Z,55.82
2018-10-11T11:37:59.724Z,55.75
2018-10-11T11:38:59.730Z,56.04
2018-10-11T11:39:59.785Z,55.29
2018-10-11T11:40:59.743Z,54.46
2018-10-11T11:41:59.748Z,55.11
2018-10-11T11:42:59.751Z,55.63
2018-10-11T11:43:59.755Z,55.73
2018-10-11T11:44:59.755Z,55.82
2018-10-11T11:45:59.851Z,55.82
2018-10-11T11:46:59.764Z,55.53
2018-10-11T11:47:59.767Z,55.63
2018-10-11T11:48:59.774Z,56.30
2018-10-11T11:49:59.779Z,55.73
2018-10-11T11:50:59.780Z,55.82
2018-10-11T11:51:59.782Z,55.65
2018-10-11T11:52:59.837Z,55.92
2018-10-11T11:53:59.794Z,56.01
2018-10-11T11:54:59.800Z,55.43
2018-10-11T11:55:59.802Z,55.43
2018-10-11T11:56:59.802Z,56.11
2018-10-11T11:57:59.851Z,55.92
2018-10-11T11:58:59.809Z,55.82
2018-10-11T11:59:59.812Z,55.79
2018-10-11T12:00:59.821Z,55.89
2018-10-11T12:01:59.844Z,55.96
2018-10-11T12:02:59.828Z,55.77
2018-10-11T12:03:59.830Z,56.51
2018-10-11T12:04:59.851Z,57.09
2018-10-11T12:05:59.834Z,57.65
2018-10-11T12:06:59.841Z,57.97
2018-10-11T12:07:59.847Z,57.97
2018-10-11T12:08:59.842Z,58.16
2018-10-11T12:09:59.851Z,57.58
2018-10-11T12:10:59.903Z,57.68
2018-10-11T12:11:59.852Z,57.87
2018-10-11T12:12:59.860Z,57.68
2018-10-11T12:13:59.863Z,57.48
2018-10-11T12:14:59.867Z,56.93
2018-10-11T12:15:59.868Z,57.32
2018-10-11T12:16:59.866Z,56.35
2018-10-11T12:17:59.869Z,56.67
2018-10-11T12:18:59.875Z,56.57
2018-10-11T12:19:59.877Z,56.28
2018-10-11T12:20:59.883Z,55.79
2018-10-11T12:21:59.939Z,55.79
2018-10-11T12:22:59.885Z,55.73
2018-10-11T12:23:59.887Z,56.01
2018-10-11T12:25:00.016Z,55.92
2018-10-11T12:25:59.898Z,55.79
2018-10-11T12:26:59.903Z,55.79
2018-10-11T12:27:59.905Z,55.47
2018-10-11T12:29:00.007Z,56.28
2018-10-11T12:29:59.906Z,56.67
2018-10-11T12:30:59.912Z,56.37
2018-10-11T12:31:59.913Z,56.28
2018-10-11T12:32:59.919Z,56.64
2018-10-11T12:33:59.923Z,56.61
2018-10-11T12:34:59.927Z,56.32
2018-10-11T12:35:59.928Z,57.39
2018-10-11T12:36:59.962Z,57.48
2018-10-11T12:37:59.933Z,57.00
2018-10-11T12:38:59.936Z,57.29
2018-10-11T12:39:59.939Z,57.68
2018-10-11T12:41:00.693Z,57.48
2018-10-11T12:41:59.939Z,58.14
2018-10-11T12:42:59.943Z,57.84
2018-10-11T12:43:59.956Z,57.65
2018-10-11T12:44:59.951Z,58.42
2018-10-11T12:45:59.953Z,58.88
2018-10-11T12:46:59.957Z,58.78
2018-10-11T12:47:59.957Z,59.59
2018-10-11T12:48:59.955Z,59.56
2018-10-11T12:49:59.979Z,60.04
2018-10-11T12:50:59.961Z,60.14
2018-10-11T12:52:00.027Z,60.91
2018-10-11T12:52:59.973Z,60.91
2018-10-11T12:53:59.972Z,61.49